Terminal Aerodrome Forecast
Issued by NWS

Home | Current Version | Previous Version | Text Only | Print | Product List | Glossary On
Versions: 1 2 3 4 5 6 7 8 9 10 11 12 13
000
FTUS41 KPHI 261745
TAFPNE
TAF
KPNE 261745Z 2618/2718 22008KT P6SM SCT250
     FM270000 18006KT P6SM BKN250
     FM270400 VRB03KT P6SM BKN100
      TEMPO 2709/2712 4SM BR
     FM271400 22006KT P6SM SCT100
     FM271700 22008G16KT P6SM SCT045=

USA.gov is the U.S. government's official web portal to all federal, state and local government web resources and services.